Time;durP1;ratioP1;P1;durP2;ratioP2;P2;SDS_P1;SDS_P2;PMS_P1;PMS_P2;Temp;Humidity;BMP_temperature;BMP_pressure;BME280_temperature;BME280_humidity;BME280_pressure;Samples;Min_cycle;Max_cycle;Signal;HPM_P1;HPM_P2
2021/10/31 00:00:14;;;;;;;27.03;19.80;;;;;;;8.67;62.20;95771.50;5029144;28;20450;-63
2021/10/31 00:02:41;;;;;;;30.63;19.90;;;;;;;8.43;62.59;95775.03;5032855;28;20443;-63
2021/10/31 00:05:10;;;;;;;27.53;19.47;;;;;;;8.54;62.80;95778.75;5015849;28;20519;-66
2021/10/31 00:07:39;;;;;;;25.40;18.63;;;;;;;8.55;62.68;95764.66;5015652;28;20570;-66
2021/10/31 00:10:07;;;;;;;22.73;18.63;;;;;;;8.57;62.58;95768.66;5025281;28;20454;-64
2021/10/31 00:12:34;;;;;;;24.13;18.17;;;;;;;8.59;62.42;95756.16;5029011;28;20485;-63
2021/10/31 00:15:02;;;;;;;25.97;17.93;;;;;;;8.45;62.94;95773.00;5029107;28;20538;-64
2021/10/31 00:17:29;;;;;;;26.40;19.00;;;;;;;8.13;63.96;95775.00;5037710;28;20529;-64
2021/10/31 00:19:56;;;;;;;23.93;17.70;;;;;;;8.42;63.19;95770.84;5029131;28;20960;-63
2021/10/31 00:22:23;;;;;;;23.30;17.57;;;;;;;8.57;63.37;95766.03;5029225;28;20884;-64
2021/10/31 00:24:50;;;;;;;26.23;17.47;;;;;;;8.69;62.17;95759.03;5033265;28;20438;-68
2021/10/31 00:27:17;;;;;;;25.37;18.47;;;;;;;8.77;62.21;95763.16;5033279;28;20455;-66
2021/10/31 00:29:44;;;;;;;23.33;17.67;;;;;;;8.53;62.09;95758.84;5032967;28;20869;-66
2021/10/31 00:32:11;;;;;;;26.83;18.37;;;;;;;8.68;61.93;95767.91;5039012;28;20478;-64
2021/10/31 00:34:38;;;;;;;24.27;17.87;;;;;;;8.56;62.84;95748.75;5038826;28;20904;-64
2021/10/31 00:37:05;;;;;;;25.60;18.23;;;;;;;8.80;61.94;95760.88;5034855;28;20487;-64
2021/10/31 00:39:32;;;;;;;24.00;17.90;;;;;;;8.87;61.80;95761.56;5033726;28;20439;-65
2021/10/31 00:41:59;;;;;;;25.73;19.27;;;;;;;8.75;61.96;95746.88;5033897;28;20463;-65
2021/10/31 00:44:26;;;;;;;23.50;17.53;;;;;;;8.83;61.95;95759.66;5034153;28;20439;-65
2021/10/31 00:46:53;;;;;;;23.53;17.37;;;;;;;8.81;61.44;95752.00;5019164;28;20465;-68
2021/10/31 00:49:20;;;;;;;23.30;16.53;;;;;;;8.81;61.84;95759.84;5023349;28;20435;-64
2021/10/31 00:51:48;;;;;;;20.37;15.47;;;;;;;8.89;61.21;95762.16;5014913;28;20588;-65
2021/10/31 00:54:16;;;;;;;23.07;15.37;;;;;;;8.86;61.07;95760.00;5019342;28;21345;-68
2021/10/31 00:56:43;;;;;;;20.70;15.87;;;;;;;8.55;62.12;95759.44;5019917;28;20444;-66
2021/10/31 00:59:10;;;;;;;21.00;15.37;;;;;;;8.12;64.04;95762.13;5017531;28;20914;-66
2021/10/31 01:01:37;;;;;;;23.87;16.03;;;;;;;8.41;63.78;95756.19;5018390;28;20450;-66
2021/10/31 01:04:05;;;;;;;24.77;15.57;;;;;;;8.53;62.25;95751.81;5023721;28;20443;-64
2021/10/31 01:07:03;;;;;;;22.90;15.70;;;;;;;8.65;62.20;95750.03;5032937;28;20464;-65
2021/10/31 01:09:50;;;;;;;19.80;15.60;;;;;;;8.47;62.67;95755.31;5027649;28;20437;-68
2021/10/31 01:12:55;;;;;;;23.70;16.03;;;;;;;8.43;63.37;95754.16;5031554;28;20476;-63
2021/10/31 01:15:36;;;;;;;22.43;16.00;;;;;;;8.55;62.90;95744.56;5028963;28;20439;-68
2021/10/31 01:18:27;;;;;;;20.93;15.63;;;;;;;8.56;62.58;95747.97;5031761;28;20937;-67
2021/10/31 01:21:15;;;;;;;22.07;16.57;;;;;;;8.41;63.36;95750.94;5032625;28;20452;-66
2021/10/31 01:24:03;;;;;;;26.60;16.43;;;;;;;8.37;62.70;95754.25;5020343;28;20451;-65
2021/10/31 01:26:42;;;;;;;21.00;15.93;;;;;;;8.41;62.45;95739.72;5018535;28;21173;-67
2021/10/31 01:29:34;;;;;;;21.53;15.83;;;;;;;8.40;62.97;95749.38;5022903;28;20455;-63
2021/10/31 01:32:55;;;;;;;22.30;15.53;;;;;;;8.36;62.36;95753.44;5003543;28;20476;-62
2021/10/31 01:35:43;;;;;;;22.77;16.80;;;;;;;8.32;63.30;95746.28;4996738;28;20433;-63
2021/10/31 01:38:19;;;;;;;22.00;17.20;;;;;;;8.10;63.25;95743.31;5007236;28;20452;-65
2021/10/31 01:41:07;;;;;;;23.57;18.00;;;;;;;8.24;63.07;95739.53;5017068;28;20451;-62
2021/10/31 01:43:39;;;;;;;29.17;18.23;;;;;;;8.31;62.67;95735.03;5031703;28;20881;-62
2021/10/31 01:46:33;;;;;;;24.43;17.73;;;;;;;8.34;63.31;95739.81;5032018;28;20450;-62
2021/10/31 01:49:22;;;;;;;25.23;17.80;;;;;;;8.11;63.84;95734.44;5019260;28;20444;-66
2021/10/31 01:51:57;;;;;;;22.50;17.50;;;;;;;8.16;63.01;95731.97;5025616;28;20491;-66
2021/10/31 01:54:41;;;;;;;23.53;17.60;;;;;;;8.11;63.65;95729.22;5019409;28;20463;-65
2021/10/31 01:57:11;;;;;;;26.30;17.70;;;;;;;7.88;64.44;95729.09;5022284;28;20958;-63
2021/10/31 01:59:42;;;;;;;25.73;18.03;;;;;;;8.07;63.93;95728.88;5012025;28;20467;-64
2021/10/31 02:02:11;;;;;;;23.47;16.70;;;;;;;8.01;64.01;95731.56;5014940;28;20451;-65
2021/10/31 02:04:40;;;;;;;22.50;16.70;;;;;;;7.99;63.81;95731.00;5025273;28;20503;-65
2021/10/31 02:07:09;;;;;;;22.40;17.00;;;;;;;8.07;63.98;95723.66;5030334;28;20476;-64
2021/10/31 02:09:39;;;;;;;22.53;16.73;;;;;;;7.91;63.71;95723.44;5023770;28;20447;-67
2021/10/31 02:12:14;;;;;;;22.97;17.13;;;;;;;7.83;64.66;95705.47;5026024;28;20484;-62
2021/10/31 02:14:42;;;;;;;22.30;17.43;;;;;;;7.77;64.65;95732.44;5031890;28;20447;-62
2021/10/31 02:17:10;;;;;;;21.70;16.77;;;;;;;7.92;63.83;95717.19;5031160;28;20471;-66
2021/10/31 02:19:40;;;;;;;24.03;17.63;;;;;;;7.85;64.14;95711.25;5014050;28;20437;-65
2021/10/31 02:22:10;;;;;;;22.33;16.97;;;;;;;7.81;63.62;95723.16;5018010;28;20455;-65
2021/10/31 02:24:39;;;;;;;24.83;16.67;;;;;;;7.87;64.09;95711.84;5029904;28;21229;-66
2021/10/31 02:27:19;;;;;;;27.67;18.13;;;;;;;7.92;63.87;95719.81;5019638;28;20448;-64
2021/10/31 02:29:51;;;;;;;23.87;17.30;;;;;;;7.72;64.76;95724.47;5027845;28;20464;-66
2021/10/31 02:32:21;;;;;;;24.37;16.97;;;;;;;7.82;64.71;95715.13;5013687;28;20479;-66
2021/10/31 02:34:49;;;;;;;24.67;18.00;;;;;;;7.47;65.83;95714.09;5019161;28;20444;-64
2021/10/31 02:37:17;;;;;;;24.43;17.73;;;;;;;7.48;66.18;95720.09;5010804;28;20491;-67
2021/10/31 02:39:45;;;;;;;27.03;19.37;;;;;;;7.44;65.75;95721.53;5013641;28;20790;-63
2021/10/31 02:42:13;;;;;;;32.47;22.77;;;;;;;7.30;65.98;95720.06;5009506;28;21332;-63
2021/10/31 02:44:41;;;;;;;35.07;25.43;;;;;;;7.49;65.69;95724.28;5032033;28;20543;-67
2021/10/31 02:47:15;;;;;;;36.27;24.13;;;;;;;7.60;65.63;95726.19;5018225;28;20531;-67
2021/10/31 02:49:42;;;;;;;33.53;24.07;;;;;;;7.53;65.97;95709.81;5019907;28;20451;-64
2021/10/31 02:52:43;;;;;;;30.37;22.57;;;;;;;7.41;66.25;95698.53;5017842;28;20495;-64
2021/10/31 02:55:21;;;;;;;32.03;20.23;;;;;;;7.30;67.38;95714.88;5019411;28;20456;-67
2021/10/31 02:58:40;;;;;;;27.13;19.70;;;;;;;7.07;68.21;95716.25;5010241;28;20507;-65
2021/10/31 03:01:07;;;;;;;29.20;19.43;;;;;;;7.53;66.83;95717.63;5014310;28;20451;-65
2021/10/31 03:03:35;;;;;;;28.27;19.93;;;;;;;7.27;67.16;95689.22;5020016;28;20452;-66
2021/10/31 03:06:04;;;;;;;30.80;22.47;;;;;;;7.50;66.87;95715.47;5023978;28;20576;-62
2021/10/31 03:08:32;;;;;;;31.07;21.63;;;;;;;7.60;66.44;95706.13;5030737;28;20447;-67
2021/10/31 03:11:07;;;;;;;30.80;21.30;;;;;;;7.65;66.41;95718.50;5030137;28;20458;-65
2021/10/31 03:13:36;;;;;;;34.03;21.93;;;;;;;7.53;66.40;95720.25;5029725;28;21281;-67
2021/10/31 03:16:05;;;;;;;32.47;21.97;;;;;;;7.50;66.45;95695.38;5029889;28;20444;-67
2021/10/31 03:18:33;;;;;;;31.07;21.60;;;;;;;7.56;66.70;95715.41;5030023;28;20494;-64
2021/10/31 03:21:00;;;;;;;30.00;21.77;;;;;;;7.60;66.55;95713.94;5029332;28;20452;-66
2021/10/31 03:23:29;;;;;;;30.20;21.30;;;;;;;7.52;67.06;95718.66;5010944;28;20480;-67
2021/10/31 03:25:56;;;;;;;36.23;23.33;;;;;;;7.44;67.02;95716.31;5021511;28;20440;-67
2021/10/31 03:28:23;;;;;;;33.73;22.23;;;;;;;7.45;66.82;95707.47;5017657;28;20442;-66
2021/10/31 03:30:50;;;;;;;33.23;23.10;;;;;;;7.40;67.28;95709.94;5014666;28;20452;-66
2021/10/31 03:33:17;;;;;;;30.83;22.73;;;;;;;7.49;67.32;95706.84;5018784;28;20499;-63
2021/10/31 03:35:44;;;;;;;34.67;22.43;;;;;;;7.55;66.98;95711.22;5020079;28;20440;-64
2021/10/31 03:38:11;;;;;;;38.73;24.20;;;;;;;7.56;66.17;95709.38;5025506;28;20444;-63
2021/10/31 03:40:38;;;;;;;40.17;24.73;;;;;;;7.28;67.65;95706.47;5021555;28;20448;-66
2021/10/31 03:43:06;;;;;;;40.83;25.43;;;;;;;7.37;67.01;95705.16;5010058;28;20445;-63
2021/10/31 03:45:33;;;;;;;37.23;22.73;;;;;;;7.43;67.01;95718.13;5010356;28;20459;-65
2021/10/31 03:48:03;;;;;;;27.67;19.57;;;;;;;7.49;66.48;95712.06;5023725;28;20439;-63
2021/10/31 03:50:31;;;;;;;28.07;18.87;;;;;;;7.42;66.21;95700.91;5031804;28;20507;-65
2021/10/31 03:52:59;;;;;;;28.67;19.03;;;;;;;7.77;65.25;95708.97;5026438;28;20508;-66
2021/10/31 03:55:26;;;;;;;27.30;19.10;;;;;;;7.60;65.58;95702.72;5036039;28;20439;-63
2021/10/31 03:57:56;;;;;;;26.27;18.37;;;;;;;7.25;67.11;95706.88;5032793;28;20440;-65
2021/10/31 04:00:24;;;;;;;27.40;17.73;;;;;;;7.58;65.86;95702.13;5015450;28;20954;-66
2021/10/31 04:02:57;;;;;;;23.27;15.83;;;;;;;7.58;65.61;95702.13;5020508;28;20953;-68
2021/10/31 04:05:24;;;;;;;23.13;16.60;;;;;;;7.82;65.38;95704.69;5023734;28;20447;-65
2021/10/31 04:07:51;;;;;;;26.70;17.80;;;;;;;7.92;64.68;95707.56;5021271;28;20578;-66
2021/10/31 04:10:20;;;;;;;22.10;15.80;;;;;;;7.84;64.86;95704.47;5026913;28;20466;-66
2021/10/31 04:12:50;;;;;;;23.37;16.53;;;;;;;7.70;65.29;95703.03;5029324;28;20473;-68
2021/10/31 04:15:18;;;;;;;27.20;18.17;;;;;;;7.87;64.12;95707.44;5030793;28;20444;-65
2021/10/31 04:17:45;;;;;;;24.47;17.43;;;;;;;7.45;65.87;95697.03;5030083;28;20501;-63
2021/10/31 04:20:12;;;;;;;26.37;17.87;;;;;;;7.60;65.50;95700.91;5029407;28;20450;-65
2021/10/31 04:22:39;;;;;;;27.00;18.47;;;;;;;7.72;65.18;95682.75;5014737;28;20453;-66
2021/10/31 04:25:07;;;;;;;23.13;17.67;;;;;;;7.58;66.01;95697.72;5017847;28;20447;-67
2021/10/31 04:27:35;;;;;;;29.47;19.33;;;;;;;7.65;65.82;95706.28;5004262;28;20449;-65
2021/10/31 04:30:04;;;;;;;29.30;18.10;;;;;;;7.80;65.11;95695.47;5011204;28;20448;-63
2021/10/31 04:32:32;;;;;;;24.67;17.97;;;;;;;7.62;65.58;95687.66;5018396;28;20490;-65
2021/10/31 04:34:59;;;;;;;26.07;18.27;;;;;;;7.63;66.12;95684.00;5020287;28;20933;-67
2021/10/31 04:37:27;;;;;;;25.27;19.00;;;;;;;7.51;66.87;95691.78;5017119;28;20444;-66
2021/10/31 04:39:57;;;;;;;28.60;18.13;;;;;;;7.57;66.06;95679.69;5001944;28;20444;-65
2021/10/31 04:42:29;;;;;;;27.60;19.77;;;;;;;7.66;65.98;95692.22;5003271;28;20436;-69
2021/10/31 04:44:56;;;;;;;32.27;22.77;;;;;;;7.14;66.56;95688.34;5011083;28;20831;-62
2021/10/31 04:47:24;;;;;;;30.77;22.47;;;;;;;7.56;65.81;95683.28;5029153;28;20472;-68
2021/10/31 04:49:51;;;;;;;34.63;25.07;;;;;;;7.17;66.99;95685.28;5029639;28;20448;-65
2021/10/31 04:52:18;;;;;;;36.50;25.50;;;;;;;7.22;66.77;95676.03;5028486;28;20467;-64
2021/10/31 04:54:45;;;;;;;38.50;24.80;;;;;;;7.37;66.64;95684.31;5029120;28;20447;-65
2021/10/31 04:57:12;;;;;;;35.67;26.03;;;;;;;7.52;65.94;95667.28;5028720;28;20440;-66
2021/10/31 04:59:39;;;;;;;40.77;26.67;;;;;;;7.33;66.80;95677.94;5018571;28;20954;-66
2021/10/31 05:02:06;;;;;;;40.07;27.20;;;;;;;7.35;66.91;95675.91;5027838;28;20453;-64
2021/10/31 05:04:34;;;;;;;41.93;27.57;;;;;;;7.35;67.25;95673.31;5026467;28;21191;-68
2021/10/31 05:07:01;;;;;;;39.77;27.30;;;;;;;7.49;67.01;95672.13;5022095;28;20472;-67
2021/10/31 05:09:28;;;;;;;43.60;29.00;;;;;;;7.67;65.79;95674.75;5014834;28;20440;-67
2021/10/31 05:11:55;;;;;;;42.33;27.97;;;;;;;7.64;65.95;95675.19;5022211;28;20447;-65
2021/10/31 05:14:22;;;;;;;41.70;27.23;;;;;;;7.49;66.14;95657.31;5009714;28;20440;-65
2021/10/31 05:16:49;;;;;;;40.43;27.90;;;;;;;7.57;66.52;95664.03;5021562;28;20443;-65
2021/10/31 05:19:16;;;;;;;46.17;28.87;;;;;;;7.65;66.49;95677.56;5032374;28;20578;-64
2021/10/31 05:21:43;;;;;;;44.93;29.87;;;;;;;7.64;66.31;95680.41;5017405;28;20860;-70
2021/10/31 05:24:10;;;;;;;47.57;30.60;;;;;;;7.73;66.03;95686.94;5022608;28;21178;-64
2021/10/31 05:26:37;;;;;;;50.33;30.33;;;;;;;7.44;67.34;95685.03;5016483;28;20443;-64
2021/10/31 05:29:04;;;;;;;46.43;32.00;;;;;;;7.39;68.16;95687.50;5020375;28;20485;-63
2021/10/31 05:31:31;;;;;;;50.50;31.83;;;;;;;7.48;67.33;95681.00;5031850;28;20440;-64
2021/10/31 05:33:58;;;;;;;52.77;32.23;;;;;;;7.65;66.71;95676.78;5030778;28;20530;-68
2021/10/31 05:36:26;;;;;;;49.57;32.63;;;;;;;7.73;66.77;95684.31;5026893;28;20533;-65
2021/10/31 05:38:52;;;;;;;42.77;30.30;;;;;;;7.78;66.61;95671.41;5030601;28;20435;-69
2021/10/31 05:41:19;;;;;;;47.67;30.87;;;;;;;7.79;66.53;95684.22;5031104;28;20436;-69
2021/10/31 05:43:46;;;;;;;41.13;26.00;;;;;;;7.98;65.43;95682.41;5030294;28;20466;-68
2021/10/31 05:46:14;;;;;;;42.50;28.30;;;;;;;7.86;66.10;95689.38;5030173;28;20444;-70
2021/10/31 05:48:43;;;;;;;39.40;27.80;;;;;;;8.01;65.19;95692.41;5029991;28;20562;-65
2021/10/31 05:51:11;;;;;;;47.43;27.80;;;;;;;7.87;65.17;95686.56;5029511;28;20448;-67
2021/10/31 05:53:38;;;;;;;45.80;31.23;;;;;;;7.83;66.35;95700.25;5030572;28;20475;-67
2021/10/31 05:56:07;;;;;;;78.57;50.87;;;;;;;8.08;65.66;95657.38;5030283;28;20448;-69
2021/10/31 05:58:34;;;;;;;100.90;68.03;;;;;;;8.45;65.02;95684.22;5029496;28;20954;-67
2021/10/31 06:01:01;;;;;;;94.70;62.67;;;;;;;8.36;64.39;95688.16;5029694;28;20439;-68
2021/10/31 06:03:29;;;;;;;91.33;54.30;;;;;;;8.30;64.53;95676.00;5029485;28;20456;-67
2021/10/31 06:05:58;;;;;;;89.03;54.13;;;;;;;8.43;64.24;95683.63;5027121;28;20452;-65
2021/10/31 06:08:25;;;;;;;87.53;55.20;;;;;;;8.05;65.49;95694.34;5028233;28;20949;-67
2021/10/31 06:10:53;;;;;;;83.57;50.80;;;;;;;7.85;66.93;95691.19;5029334;28;20444;-66
2021/10/31 06:13:35;;;;;;;79.33;46.60;;;;;;;7.96;66.17;95689.66;5029090;28;20484;-66
2021/10/31 06:16:03;;;;;;;61.70;41.33;;;;;;;8.01;66.10;95692.41;5026351;28;21022;-65
2021/10/31 06:18:31;;;;;;;95.87;65.23;;;;;;;7.97;66.33;95686.03;5024067;28;20435;-66
2021/10/31 06:20:58;;;;;;;76.37;50.47;;;;;;;7.89;66.29;95699.38;5028900;28;20472;-66
2021/10/31 06:23:25;;;;;;;80.27;48.83;;;;;;;8.39;65.40;95700.78;5027984;28;20462;-64
2021/10/31 06:25:52;;;;;;;71.23;48.10;;;;;;;8.23;64.83;95688.28;5029280;28;20439;-67
2021/10/31 06:28:19;;;;;;;67.97;45.30;;;;;;;8.31;65.26;95697.66;5028548;28;20898;-63
2021/10/31 06:30:46;;;;;;;64.57;41.77;;;;;;;8.28;64.60;95693.69;5028932;28;20443;-66
2021/10/31 06:33:13;;;;;;;71.87;45.07;;;;;;;8.32;65.71;95694.84;5026597;28;20503;-63
2021/10/31 06:35:40;;;;;;;68.07;41.97;;;;;;;8.58;64.60;95701.50;5029619;28;20440;-67
2021/10/31 06:38:07;;;;;;;59.53;38.97;;;;;;;8.68;64.24;95699.16;5027503;28;20440;-66
2021/10/31 06:40:34;;;;;;;57.43;38.20;;;;;;;8.75;63.61;95695.44;5028813;28;20447;-64
2021/10/31 06:43:01;;;;;;;50.90;32.43;;;;;;;8.67;64.32;95698.34;5028093;28;20490;-64
2021/10/31 06:45:28;;;;;;;46.60;31.80;;;;;;;8.77;63.47;95698.63;5025841;28;20443;-65
2021/10/31 06:47:55;;;;;;;50.50;33.93;;;;;;;8.95;63.11;95701.16;5027777;28;20436;-67
2021/10/31 06:50:22;;;;;;;66.13;43.20;;;;;;;8.92;63.66;95698.97;5025007;28;20441;-66
2021/10/31 06:52:50;;;;;;;80.30;52.40;;;;;;;8.80;63.81;95703.38;5026789;28;20471;-64
2021/10/31 06:55:18;;;;;;;70.30;48.03;;;;;;;9.10;63.31;95711.94;5027438;28;20443;-65
2021/10/31 06:57:46;;;;;;;64.50;46.30;;;;;;;8.91;63.83;95702.63;5027659;28;20462;-65
2021/10/31 07:00:13;;;;;;;67.00;44.57;;;;;;;9.08;66.23;95703.56;5026838;28;20473;-64
2021/10/31 07:02:40;;;;;;;69.90;46.60;;;;;;;9.27;64.69;95693.00;5027493;28;20993;-68
2021/10/31 07:05:09;;;;;;;74.40;47.97;;;;;;;9.02;64.41;95707.06;5025115;28;20448;-67
2021/10/31 07:07:36;;;;;;;58.23;38.67;;;;;;;9.03;63.76;95702.63;5027382;28;21001;-68
2021/10/31 07:10:04;;;;;;;51.43;37.03;;;;;;;9.09;63.49;95694.69;5028643;28;20440;-64
2021/10/31 07:12:31;;;;;;;61.37;38.03;;;;;;;9.16;63.45;95692.75;5018537;28;20435;-67
2021/10/31 07:14:59;;;;;;;53.57;38.67;;;;;;;9.27;62.45;95695.59;5025656;28;20984;-64
2021/10/31 07:17:26;;;;;;;59.00;38.33;;;;;;;9.44;62.18;95701.72;5028140;28;20808;-65
2021/10/31 07:19:52;;;;;;;55.33;36.53;;;;;;;9.28;62.77;95699.81;5028273;28;20574;-63
2021/10/31 07:22:20;;;;;;;58.50;38.53;;;;;;;9.14;63.01;95707.88;5028435;28;21312;-66
2021/10/31 07:24:50;;;;;;;60.93;40.60;;;;;;;9.12;61.43;95649.00;5029260;28;20531;-65
2021/10/31 07:27:32;;;;;;;63.73;41.93;;;;;;;9.84;59.97;95692.13;5028410;28;20911;-67
2021/10/31 07:30:00;;;;;;;59.73;40.23;;;;;;;9.18;62.09;95690.69;5025882;28;20441;-62
2021/10/31 07:32:29;;;;;;;61.17;39.83;;;;;;;9.60;61.03;95693.22;5025073;28;20444;-62
2021/10/31 07:34:55;;;;;;;72.27;40.53;;;;;;;9.69;61.31;95691.81;5027949;28;20472;-65
2021/10/31 07:37:22;;;;;;;55.73;38.53;;;;;;;10.16;60.41;95693.34;5025756;28;20458;-63
2021/10/31 07:39:52;;;;;;;58.27;39.93;;;;;;;10.10;59.80;95683.78;5026718;28;20490;-66
2021/10/31 07:42:19;;;;;;;59.20;37.87;;;;;;;9.83;61.29;95674.84;5027388;28;20899;-65
2021/10/31 07:44:48;;;;;;;55.77;35.07;;;;;;;9.74;60.34;95673.59;5027523;28;20451;-64
2021/10/31 07:47:16;;;;;;;43.63;30.30;;;;;;;9.97;60.32;95673.53;5026860;28;20770;-65
2021/10/31 07:49:43;;;;;;;55.10;38.00;;;;;;;10.16;59.69;95659.28;5026127;28;20495;-69
2021/10/31 07:52:22;;;;;;;51.13;33.20;;;;;;;9.91;59.79;95669.22;5025353;28;20446;-66
2021/10/31 07:54:50;;;;;;;57.57;38.27;;;;;;;9.69;61.74;95676.13;5027838;28;20502;-64
2021/10/31 07:57:19;;;;;;;62.40;40.53;;;;;;;9.97;60.38;95674.34;5027630;28;20436;-66
2021/10/31 07:59:46;;;;;;;84.67;56.00;;;;;;;9.97;60.66;95674.34;5028566;28;20468;-63
2021/10/31 08:02:13;;;;;;;128.00;89.30;;;;;;;9.69;61.52;95670.91;5024852;28;20459;-64
2021/10/31 08:04:41;;;;;;;63.70;44.57;;;;;;;9.54;61.90;95675.81;5027910;28;20455;-66
2021/10/31 08:07:08;;;;;;;65.10;39.57;;;;;;;9.73;62.19;95677.22;5028473;28;20522;-67
2021/10/31 08:09:35;;;;;;;52.87;36.50;;;;;;;10.12;61.74;95676.50;5030451;28;20539;-64
2021/10/31 08:12:03;;;;;;;47.77;35.60;;;;;;;10.15;60.71;95670.78;5029160;28;20436;-64
2021/10/31 08:14:30;;;;;;;51.40;37.03;;;;;;;10.21;61.70;95675.09;5027243;28;20479;-64
2021/10/31 08:16:57;;;;;;;42.47;28.67;;;;;;;10.21;62.57;95669.84;5025819;28;20452;-66
2021/10/31 08:19:24;;;;;;;35.17;26.63;;;;;;;10.30;61.82;95668.44;5026135;28;20451;-65
2021/10/31 08:21:53;;;;;;;35.47;24.30;;;;;;;10.40;62.62;95662.59;5025904;28;20458;-66
2021/10/31 08:24:21;;;;;;;35.00;22.20;;;;;;;10.37;62.57;95668.28;5027752;28;20525;-65
2021/10/31 08:26:50;;;;;;;30.23;22.37;;;;;;;10.47;62.31;95658.81;5027933;28;20960;-65
2021/10/31 08:29:20;;;;;;;32.77;22.97;;;;;;;10.44;61.50;95653.25;5027596;28;20443;-65
2021/10/31 08:31:50;;;;;;;28.40;21.00;;;;;;;10.36;61.32;95662.28;5026810;28;20462;-65
2021/10/31 08:34:17;;;;;;;28.13;20.00;;;;;;;10.31;61.06;95656.16;5027172;28;20487;-65
2021/10/31 08:36:44;;;;;;;27.67;21.47;;;;;;;9.72;61.84;95657.34;5026147;28;20471;-66
2021/10/31 08:39:11;;;;;;;29.73;21.03;;;;;;;9.62;62.65;95659.72;5027115;28;21270;-66
2021/10/31 08:41:39;;;;;;;29.47;21.00;;;;;;;10.07;62.15;95647.56;5024830;28;20474;-68
2021/10/31 08:44:06;;;;;;;28.53;21.47;;;;;;;10.46;60.88;95644.09;5029180;28;20435;-65
2021/10/31 08:46:34;;;;;;;31.67;22.37;;;;;;;10.64;61.08;95648.31;5030713;28;20570;-66
2021/10/31 08:49:05;;;;;;;32.23;21.70;;;;;;;10.66;61.25;95641.81;5031044;28;20455;-65
2021/10/31 08:51:32;;;;;;;25.50;19.93;;;;;;;11.05;60.13;95640.88;5031068;28;20443;-68
2021/10/31 08:54:00;;;;;;;26.33;21.10;;;;;;;10.85;60.96;95640.56;5030359;28;20485;-65
2021/10/31 08:56:28;;;;;;;31.50;21.17;;;;;;;10.84;60.05;95628.47;5030681;28;20440;-67
2021/10/31 08:58:56;;;;;;;30.40;21.07;;;;;;;11.08;60.11;95634.34;5030980;28;20454;-64
2021/10/31 09:01:25;;;;;;;27.60;20.37;;;;;;;10.87;60.39;95622.78;5030656;28;20450;-65
2021/10/31 09:03:53;;;;;;;27.63;21.07;;;;;;;10.83;61.19;95626.91;5030820;28;20810;-65
2021/10/31 09:06:26;;;;;;;32.10;21.70;;;;;;;10.86;62.14;95623.81;5030066;28;20595;-64
2021/10/31 09:08:53;;;;;;;27.33;20.77;;;;;;;11.22;61.19;95615.41;5030787;28;20439;-64
2021/10/31 09:11:20;;;;;;;29.20;19.90;;;;;;;11.36;60.94;95615.06;5027799;28;20431;-64
2021/10/31 09:13:51;;;;;;;29.83;19.67;;;;;;;11.14;60.19;95583.56;5030854;28;20491;-66
2021/10/31 09:16:19;;;;;;;29.03;21.27;;;;;;;11.32;60.68;95608.72;5028369;28;21065;-65
2021/10/31 09:18:49;;;;;;;27.23;20.63;;;;;;;11.47;60.09;95611.53;5031185;28;20451;-67
2021/10/31 09:21:22;;;;;;;37.63;22.30;;;;;;;11.38;59.98;95579.69;5030128;28;20451;-68
2021/10/31 09:23:50;;;;;;;29.80;21.80;;;;;;;11.66;59.73;95615.50;5030903;28;20446;-65
2021/10/31 09:26:19;;;;;;;28.40;20.83;;;;;;;11.51;59.32;95608.22;5030365;28;20454;-66
2021/10/31 09:28:47;;;;;;;31.23;21.93;;;;;;;11.00;59.96;95604.06;5030665;28;20452;-66
2021/10/31 09:31:15;;;;;;;29.73;22.37;;;;;;;11.37;59.73;95606.19;5028211;28;20443;-67
2021/10/31 09:33:42;;;;;;;33.77;21.83;;;;;;;11.33;58.64;95597.19;5031362;28;20507;-66
2021/10/31 09:36:09;;;;;;;31.97;23.40;;;;;;;11.26;59.14;95567.72;5030451;28;20435;-70
2021/10/31 09:38:37;;;;;;;32.80;22.47;;;;;;;11.93;58.72;95590.09;5029959;28;20451;-66
2021/10/31 09:41:05;;;;;;;30.70;23.60;;;;;;;12.14;58.37;95581.34;5028532;28;20467;-64
2021/10/31 09:43:45;;;;;;;34.13;22.47;;;;;;;12.19;58.19;95579.56;5026876;28;20560;-70
2021/10/31 09:46:12;;;;;;;28.30;21.27;;;;;;;12.11;55.32;95579.25;5030081;28;20824;-68
2021/10/31 09:48:39;;;;;;;28.70;20.47;;;;;;;12.92;54.39;95567.53;5030742;28;20448;-66
2021/10/31 09:51:06;;;;;;;24.90;17.93;;;;;;;13.56;53.26;95562.91;5031559;28;20828;-69
2021/10/31 09:53:33;;;;;;;19.63;14.90;;;;;;;13.17;50.48;95552.72;5030035;28;20471;-67
2021/10/31 09:56:01;;;;;;;13.40;11.83;;;;;;;13.29;48.24;95557.81;5027150;28;20451;-67
2021/10/31 09:58:37;;;;;;;13.33;11.40;;;;;;;12.92;48.00;95542.03;5029758;28;20482;-64
2021/10/31 10:01:20;;;;;;;14.27;12.00;;;;;;;12.71;49.19;95548.22;5029632;28;20542;-63
2021/10/31 10:03:55;;;;;;;14.63;12.70;;;;;;;12.80;49.65;95538.81;5032813;28;20826;-66
2021/10/31 10:06:25;;;;;;;16.77;13.40;;;;;;;12.98;49.77;95550.75;5030052;28;20463;-64
2021/10/31 10:09:10;;;;;;;15.67;13.53;;;;;;;12.40;50.85;95549.03;5028475;28;20470;-65
2021/10/31 10:11:40;;;;;;;15.13;12.57;;;;;;;12.08;52.79;95556.06;5027098;28;20447;-67
2021/10/31 10:14:40;;;;;;;17.27;13.23;;;;;;;12.44;53.27;95539.59;5026586;28;20997;-62
2021/10/31 10:17:16;;;;;;;136.33;109.53;;;;;;;13.07;51.70;95538.72;5030613;28;20539;-64
2021/10/31 10:19:56;;;;;;;55.07;44.23;;;;;;;13.05;50.70;95536.38;5027107;28;20506;-62
2021/10/31 10:22:25;;;;;;;16.77;11.77;;;;;;;13.17;50.21;95529.06;5029923;28;21065;-64
2021/10/31 10:24:59;;;;;;;14.63;11.67;;;;;;;13.15;49.67;95525.91;5028719;28;20449;-64
2021/10/31 10:27:30;;;;;;;16.03;12.10;;;;;;;13.10;49.85;95528.50;5029744;28;20440;-63
2021/10/31 10:30:09;;;;;;;13.33;11.27;;;;;;;13.32;48.36;95517.03;5028089;28;20469;-63
2021/10/31 10:32:48;;;;;;;17.30;11.93;;;;;;;13.28;48.60;95523.84;5028981;28;20448;-64
2021/10/31 10:35:17;;;;;;;16.53;10.97;;;;;;;12.83;47.55;95517.25;5029080;28;20590;-64
2021/10/31 10:37:44;;;;;;;16.30;12.33;;;;;;;12.83;48.61;95514.63;5030090;28;20901;-67
2021/10/31 10:40:19;;;;;;;13.30;11.83;;;;;;;13.29;47.67;95520.16;5029561;28;20451;-64
2021/10/31 10:42:56;;;;;;;12.33;9.97;;;;;;;12.79;47.59;95516.16;5029441;28;20475;-65
2021/10/31 10:45:31;;;;;;;13.93;10.40;;;;;;;13.03;48.04;95516.59;5029200;28;20471;-65
2021/10/31 10:48:04;;;;;;;12.93;10.03;;;;;;;13.37;46.92;95502.06;5030122;28;20453;-64
2021/10/31 10:50:42;;;;;;;11.63;9.40;;;;;;;12.74;45.59;95508.25;5017004;28;20510;-65
2021/10/31 10:53:18;;;;;;;12.00;9.93;;;;;;;12.73;45.91;95508.53;5016187;28;20944;-63
2021/10/31 10:55:45;;;;;;;13.67;10.60;;;;;;;13.04;46.12;95513.75;5016764;28;20492;-65
2021/10/31 10:58:14;;;;;;;12.90;10.67;;;;;;;13.44;45.89;95501.81;5030052;28;20447;-65
2021/10/31 11:00:46;;;;;;;12.43;10.77;;;;;;;13.43;45.53;95495.72;5011386;28;20476;-67
2021/10/31 11:03:20;;;;;;;12.07;10.43;;;;;;;13.54;45.01;95492.09;5021772;28;20451;-65
2021/10/31 11:05:50;;;;;;;11.90;9.73;;;;;;;13.18;44.98;95490.38;5024903;28;20495;-64
2021/10/31 11:08:20;;;;;;;11.97;10.67;;;;;;;13.56;45.67;95489.19;5008884;28;20479;-64
2021/10/31 11:10:55;;;;;;;16.10;10.53;;;;;;;13.67;45.10;95485.53;5028583;28;20539;-65
2021/10/31 11:13:26;;;;;;;13.30;11.87;;;;;;;13.72;45.15;95473.16;5030480;28;20961;-64
2021/10/31 11:15:59;;;;;;;11.80;10.40;;;;;;;12.95;43.85;95478.41;5030293;28;21016;-64
2021/10/31 11:18:27;;;;;;;15.10;12.43;;;;;;;13.49;44.77;95483.38;5030027;28;21016;-65
2021/10/31 11:20:54;;;;;;;11.27;9.77;;;;;;;12.86;44.33;95479.94;5016304;28;20445;-65
2021/10/31 11:23:22;;;;;;;11.50;9.97;;;;;;;13.02;44.93;95472.91;5015943;28;20448;-65
2021/10/31 11:25:50;;;;;;;14.40;10.83;;;;;;;13.42;44.63;95472.31;5029774;28;20798;-63
2021/10/31 11:28:20;;;;;;;14.13;10.13;;;;;;;13.48;44.58;95455.47;5024469;28;20445;-65
2021/10/31 11:30:50;;;;;;;11.30;9.60;;;;;;;13.95;44.29;95461.38;5021294;28;20459;-66
2021/10/31 11:33:17;;;;;;;9.90;8.90;;;;;;;14.01;43.62;95452.41;5029281;28;20440;-63
2021/10/31 11:35:44;;;;;;;13.63;9.47;;;;;;;13.65;44.57;95456.84;5020191;28;20582;-64